sensor_id;sensor_type;location;lat;lon;timestamp;temperature;humidity
30336;DHT22;17142;47.990;7.846;2023-07-31T04:52:06;14.40;99.90
30336;DHT22;17142;47.990;7.846;2023-07-31T04:54:34;14.50;99.90
30336;DHT22;17142;47.990;7.846;2023-07-31T04:57:00;14.60;99.90
30336;DHT22;17142;47.990;7.846;2023-07-31T04:59:25;14.70;99.90
30336;DHT22;17142;47.990;7.846;2023-07-31T05:01:51;14.80;99.90
30336;DHT22;17142;47.990;7.846;2023-07-31T05:04:16;14.90;99.90
30336;DHT22;17142;47.990;7.846;2023-07-31T05:06:42;15.00;99.90
30336;DHT22;17142;47.990;7.846;2023-07-31T05:09:08;15.10;99.90
30336;DHT22;17142;47.990;7.846;2023-07-31T05:11:35;15.30;99.90
30336;DHT22;17142;47.990;7.846;2023-07-31T05:14:00;15.40;99.90
30336;DHT22;17142;47.990;7.846;2023-07-31T05:16:28;15.50;99.90
30336;DHT22;17142;47.990;7.846;2023-07-31T05:18:56;15.80;99.90
30336;DHT22;17142;47.990;7.846;2023-07-31T05:21:22;15.90;99.90
30336;DHT22;17142;47.990;7.846;2023-07-31T05:23:50;16.10;99.90
30336;DHT22;17142;47.990;7.846;2023-07-31T05:26:15;16.20;99.90
30336;DHT22;17142;47.990;7.846;2023-07-31T05:28:41;16.40;99.90
30336;DHT22;17142;47.990;7.846;2023-07-31T05:31:07;16.60;99.90
30336;DHT22;17142;47.990;7.846;2023-07-31T05:33:32;16.70;99.90
30336;DHT22;17142;47.990;7.846;2023-07-31T05:36:01;16.80;99.90
30336;DHT22;17142;47.990;7.846;2023-07-31T05:38:26;17.00;99.90
30336;DHT22;17142;47.990;7.846;2023-07-31T05:40:52;17.20;99.90
30336;DHT22;17142;47.990;7.846;2023-07-31T05:43:20;17.30;99.90
30336;DHT22;17142;47.990;7.846;2023-07-31T05:45:45;17.40;99.90
30336;DHT22;17142;47.990;7.846;2023-07-31T05:48:11;17.40;99.90
30336;DHT22;17142;47.990;7.846;2023-07-31T05:50:37;17.60;99.90
30336;DHT22;17142;47.990;7.846;2023-07-31T05:53:05;17.60;99.90
30336;DHT22;17142;47.990;7.846;2023-07-31T05:55:34;17.70;99.90
30336;DHT22;17142;47.990;7.846;2023-07-31T05:57:59;17.70;99.90
30336;DHT22;17142;47.990;7.846;2023-07-31T06:00:25;17.80;99.90
30336;DHT22;17142;47.990;7.846;2023-07-31T06:02:51;17.80;99.90
30336;DHT22;17142;47.990;7.846;2023-07-31T06:05:21;18.00;99.90
30336;DHT22;17142;47.990;7.846;2023-07-31T06:07:47;18.20;99.90
30336;DHT22;17142;47.990;7.846;2023-07-31T06:10:12;18.40;99.90
30336;DHT22;17142;47.990;7.846;2023-07-31T06:12:41;19.10;99.90
30336;DHT22;17142;47.990;7.846;2023-07-31T06:15:06;19.70;99.90
30336;DHT22;17142;47.990;7.846;2023-07-31T06:17:32;19.80;99.90
30336;DHT22;17142;47.990;7.846;2023-07-31T06:19:58;19.80;99.90
30336;DHT22;17142;47.990;7.846;2023-07-31T06:22:24;19.50;99.90
30336;DHT22;17142;47.990;7.846;2023-07-31T06:24:49;19.50;99.90
30336;DHT22;17142;47.990;7.846;2023-07-31T06:27:15;19.40;99.90
30336;DHT22;17142;47.990;7.846;2023-07-31T06:29:42;19.40;99.90
30336;DHT22;17142;47.990;7.846;2023-07-31T06:32:08;19.40;99.90
30336;DHT22;17142;47.990;7.846;2023-07-31T06:34:35;19.30;99.90
30336;DHT22;17142;47.990;7.846;2023-07-31T06:37:01;19.30;99.90
30336;DHT22;17142;47.990;7.846;2023-07-31T06:39:27;19.30;99.90
30336;DHT22;17142;47.990;7.846;2023-07-31T06:41:52;19.50;99.90
30336;DHT22;17142;47.990;7.846;2023-07-31T06:44:20;19.50;99.90
30336;DHT22;17142;47.990;7.846;2023-07-31T06:46:46;19.50;99.90
30336;DHT22;17142;47.990;7.846;2023-07-31T06:49:14;19.50;99.90
30336;DHT22;17142;47.990;7.846;2023-07-31T06:51:42;19.60;99.90
30336;DHT22;17142;47.990;7.846;2023-07-31T06:54:12;19.60;99.90
30336;DHT22;17142;47.990;7.846;2023-07-31T06:56:40;19.50;99.90
30336;DHT22;17142;47.990;7.846;2023-07-31T06:59:06;19.50;99.90
30336;DHT22;17142;47.990;7.846;2023-07-31T07:01:31;19.50;99.90
30336;DHT22;17142;47.990;7.846;2023-07-31T07:03:57;19.70;99.90
30336;DHT22;17142;47.990;7.846;2023-07-31T07:06:23;20.20;99.90
30336;DHT22;17142;47.990;7.846;2023-07-31T07:08:48;20.50;99.60
30336;DHT22;17142;47.990;7.846;2023-07-31T07:11:14;20.60;99.50
30336;DHT22;17142;47.990;7.846;2023-07-31T07:13:40;20.30;99.40
30336;DHT22;17142;47.990;7.846;2023-07-31T07:16:05;19.90;99.50
30336;DHT22;17142;47.990;7.846;2023-07-31T07:18:31;19.80;99.80
30336;DHT22;17142;47.990;7.846;2023-07-31T07:20:59;20.00;99.80
30336;DHT22;17142;47.990;7.846;2023-07-31T07:23:27;21.10;98.20
30336;DHT22;17142;47.990;7.846;2023-07-31T07:25:53;22.20;96.50
30336;DHT22;17142;47.990;7.846;2023-07-31T07:28:18;22.70;95.20
30336;DHT22;17142;47.990;7.846;2023-07-31T07:30:50;22.80;94.50
30336;DHT22;17142;47.990;7.846;2023-07-31T07:33:18;22.60;93.90
30336;DHT22;17142;47.990;7.846;2023-07-31T07:35:43;23.10;93.00
30336;DHT22;17142;47.990;7.846;2023-07-31T07:38:09;23.50;92.70
30336;DHT22;17142;47.990;7.846;2023-07-31T07:40:39;23.60;91.80
30336;DHT22;17142;47.990;7.846;2023-07-31T07:43:04;23.80;90.80
30336;DHT22;17142;47.990;7.846;2023-07-31T07:45:32;23.70;90.80
30336;DHT22;17142;47.990;7.846;2023-07-31T07:47:58;24.80;87.60
30336;DHT22;17142;47.990;7.846;2023-07-31T07:50:24;25.50;83.40
30336;DHT22;17142;47.990;7.846;2023-07-31T07:52:52;25.80;81.40
30336;DHT22;17142;47.990;7.846;2023-07-31T07:55:18;25.80;80.70
30336;DHT22;17142;47.990;7.846;2023-07-31T07:57:43;26.00;77.10
30336;DHT22;17142;47.990;7.846;2023-07-31T08:00:13;24.60;80.80
30336;DHT22;17142;47.990;7.846;2023-07-31T08:02:38;24.20;81.00
30336;DHT22;17142;47.990;7.846;2023-07-31T08:05:04;23.90;82.90
30336;DHT22;17142;47.990;7.846;2023-07-31T08:07:30;23.30;81.80
30336;DHT22;17142;47.990;7.846;2023-07-31T08:09:58;23.00;83.70
30336;DHT22;17142;47.990;7.846;2023-07-31T08:12:23;22.80;86.50
30336;DHT22;17142;47.990;7.846;2023-07-31T08:14:49;22.70;86.50
30336;DHT22;17142;47.990;7.846;2023-07-31T08:17:17;22.50;88.00
30336;DHT22;17142;47.990;7.846;2023-07-31T08:19:42;22.40;88.00
30336;DHT22;17142;47.990;7.846;2023-07-31T08:22:09;22.30;89.30
30336;DHT22;17142;47.990;7.846;2023-07-31T08:24:41;22.20;88.80
30336;DHT22;17142;47.990;7.846;2023-07-31T08:27:06;22.50;88.80
30336;DHT22;17142;47.990;7.846;2023-07-31T08:29:32;23.00;86.40
30336;DHT22;17142;47.990;7.846;2023-07-31T08:31:57;23.70;83.70
30336;DHT22;17142;47.990;7.846;2023-07-31T08:34:23;24.10;83.10
30336;DHT22;17142;47.990;7.846;2023-07-31T08:36:51;24.50;81.30
30336;DHT22;17142;47.990;7.846;2023-07-31T08:39:17;24.70;80.10
30336;DHT22;17142;47.990;7.846;2023-07-31T08:41:42;24.00;80.10
30336;DHT22;17142;47.990;7.846;2023-07-31T08:44:09;24.20;80.80
30336;DHT22;17142;47.990;7.846;2023-07-31T08:46:35;24.00;82.90
30336;DHT22;17142;47.990;7.846;2023-07-31T08:49:06;24.30;81.60
30336;DHT22;17142;47.990;7.846;2023-07-31T08:51:36;24.40;79.00
30336;DHT22;17142;47.990;7.846;2023-07-31T08:54:02;24.10;78.80
30336;DHT22;17142;47.990;7.846;2023-07-31T08:56:29;24.20;79.10
30336;DHT22;17142;47.990;7.846;2023-07-31T08:59:02;24.50;79.10
30336;DHT22;17142;47.990;7.846;2023-07-31T09:01:35;24.70;77.20
30336;DHT22;17142;47.990;7.846;2023-07-31T09:04:04;24.30;77.80
30336;DHT22;17142;47.990;7.846;2023-07-31T09:06:31;24.80;77.60
30336;DHT22;17142;47.990;7.846;2023-07-31T09:08:57;25.00;78.00
30336;DHT22;17142;47.990;7.846;2023-07-31T09:11:24;25.60;77.20
30336;DHT22;17142;47.990;7.846;2023-07-31T09:13:50;25.40;74.80
30336;DHT22;17142;47.990;7.846;2023-07-31T09:16:15;24.80;76.50
30336;DHT22;17142;47.990;7.846;2023-07-31T09:18:54;24.40;78.10
30336;DHT22;17142;47.990;7.846;2023-07-31T09:21:26;24.70;77.80
30336;DHT22;17142;47.990;7.846;2023-07-31T09:23:55;24.50;77.90
30336;DHT22;17142;47.990;7.846;2023-07-31T09:26:32;24.40;78.90
30336;DHT22;17142;47.990;7.846;2023-07-31T09:29:05;24.20;79.70
30336;DHT22;17142;47.990;7.846;2023-07-31T09:31:42;24.30;79.20
30336;DHT22;17142;47.990;7.846;2023-07-31T09:34:11;24.20;78.60
30336;DHT22;17142;47.990;7.846;2023-07-31T09:36:55;24.50;78.40
30336;DHT22;17142;47.990;7.846;2023-07-31T09:39:20;24.40;80.60
30336;DHT22;17142;47.990;7.846;2023-07-31T09:41:58;24.40;79.00
30336;DHT22;17142;47.990;7.846;2023-07-31T09:44:42;24.50;79.10
30336;DHT22;17142;47.990;7.846;2023-07-31T09:47:23;24.50;79.30
30336;DHT22;17142;47.990;7.846;2023-07-31T09:49:52;24.50;78.10
30336;DHT22;17142;47.990;7.846;2023-07-31T09:52:17;24.40;78.90
30336;DHT22;17142;47.990;7.846;2023-07-31T09:54:43;24.30;78.30
30336;DHT22;17142;47.990;7.846;2023-07-31T09:57:09;24.30;79.70
30336;DHT22;17142;47.990;7.846;2023-07-31T09:59:36;24.20;78.50
30336;DHT22;17142;47.990;7.846;2023-07-31T10:02:01;24.00;78.50
30336;DHT22;17142;47.990;7.846;2023-07-31T10:04:28;23.90;79.20
30336;DHT22;17142;47.990;7.846;2023-07-31T10:06:58;24.00;79.20
30336;DHT22;17142;47.990;7.846;2023-07-31T10:09:33;24.00;80.10
30336;DHT22;17142;47.990;7.846;2023-07-31T10:12:02;24.30;79.10
30336;DHT22;17142;47.990;7.846;2023-07-31T10:14:30;24.40;79.20
30336;DHT22;17142;47.990;7.846;2023-07-31T10:16:57;24.30;78.30
30336;DHT22;17142;47.990;7.846;2023-07-31T10:19:23;24.30;77.10
30336;DHT22;17142;47.990;7.846;2023-07-31T10:21:50;24.30;78.20
30336;DHT22;17142;47.990;7.846;2023-07-31T10:24:16;24.40;76.80
30336;DHT22;17142;47.990;7.846;2023-07-31T10:26:45;24.30;77.30
30336;DHT22;17142;47.990;7.846;2023-07-31T10:29:11;24.50;77.90
30336;DHT22;17142;47.990;7.846;2023-07-31T10:31:40;24.50;77.70
30336;DHT22;17142;47.990;7.846;2023-07-31T10:34:11;24.40;78.40
30336;DHT22;17142;47.990;7.846;2023-07-31T10:36:39;24.40;77.70
30336;DHT22;17142;47.990;7.846;2023-07-31T10:39:04;24.20;79.40
30336;DHT22;17142;47.990;7.846;2023-07-31T10:41:52;24.50;78.60
30336;DHT22;17142;47.990;7.846;2023-07-31T10:44:20;24.70;78.30
30336;DHT22;17142;47.990;7.846;2023-07-31T10:46:46;24.70;78.70
30336;DHT22;17142;47.990;7.846;2023-07-31T10:49:20;24.80;77.90
30336;DHT22;17142;47.990;7.846;2023-07-31T10:51:47;24.60;75.70
30336;DHT22;17142;47.990;7.846;2023-07-31T10:54:16;24.70;74.20
30336;DHT22;17142;47.990;7.846;2023-07-31T10:56:49;24.50;74.20
30336;DHT22;17142;47.990;7.846;2023-07-31T10:59:15;24.60;73.70
30336;DHT22;17142;47.990;7.846;2023-07-31T11:02:00;24.70;73.20
30336;DHT22;17142;47.990;7.846;2023-07-31T11:04:29;25.20;72.80
30336;DHT22;17142;47.990;7.846;2023-07-31T11:07:00;25.30;72.20
30336;DHT22;17142;47.990;7.846;2023-07-31T11:09:31;25.30;72.70
30336;DHT22;17142;47.990;7.846;2023-07-31T11:12:02;25.40;73.10
30336;DHT22;17142;47.990;7.846;2023-07-31T11:14:30;25.20;73.60
30336;DHT22;17142;47.990;7.846;2023-07-31T11:16:56;25.20;72.40
30336;DHT22;17142;47.990;7.846;2023-07-31T11:19:25;24.80;73.20
30336;DHT22;17142;47.990;7.846;2023-07-31T11:21:57;24.60;74.00
30336;DHT22;17142;47.990;7.846;2023-07-31T11:24:24;24.90;74.80
30336;DHT22;17142;47.990;7.846;2023-07-31T11:26:52;24.90;76.50
30336;DHT22;17142;47.990;7.846;2023-07-31T11:29:21;25.10;78.60
30336;DHT22;17142;47.990;7.846;2023-07-31T11:31:52;25.40;76.40
30336;DHT22;17142;47.990;7.846;2023-07-31T11:34:18;25.80;74.40
30336;DHT22;17142;47.990;7.846;2023-07-31T11:36:57;25.70;74.00
30336;DHT22;17142;47.990;7.846;2023-07-31T11:39:24;25.20;76.00
30336;DHT22;17142;47.990;7.846;2023-07-31T11:41:52;25.20;76.90
30336;DHT22;17142;47.990;7.846;2023-07-31T11:44:25;25.60;75.50
30336;DHT22;17142;47.990;7.846;2023-07-31T11:46:56;25.60;74.50
30336;DHT22;17142;47.990;7.846;2023-07-31T11:49:22;25.80;74.80
30336;DHT22;17142;47.990;7.846;2023-07-31T11:51:48;25.60;74.50
30336;DHT22;17142;47.990;7.846;2023-07-31T11:54:13;25.60;74.00
30336;DHT22;17142;47.990;7.846;2023-07-31T11:56:39;25.80;73.30
30336;DHT22;17142;47.990;7.846;2023-07-31T11:59:05;25.90;72.10
30336;DHT22;17142;47.990;7.846;2023-07-31T12:01:33;26.60;71.10
30336;DHT22;17142;47.990;7.846;2023-07-31T12:03:59;27.00;71.70
30336;DHT22;17142;47.990;7.846;2023-07-31T12:06:35;26.90;71.40
30336;DHT22;17142;47.990;7.846;2023-07-31T12:09:05;26.50;72.10
30336;DHT22;17142;47.990;7.846;2023-07-31T12:11:43;26.30;72.60
30336;DHT22;17142;47.990;7.846;2023-07-31T12:14:26;26.20;69.60
30336;DHT22;17142;47.990;7.846;2023-07-31T12:16:56;25.90;71.50
30336;DHT22;17142;47.990;7.846;2023-07-31T12:19:22;25.50;72.20
30336;DHT22;17142;47.990;7.846;2023-07-31T12:21:48;25.60;73.40
30336;DHT22;17142;47.990;7.846;2023-07-31T12:24:14;25.90;72.60
30336;DHT22;17142;47.990;7.846;2023-07-31T12:26:40;25.90;71.60
30336;DHT22;17142;47.990;7.846;2023-07-31T12:29:08;25.90;71.40
30336;DHT22;17142;47.990;7.846;2023-07-31T12:31:34;26.20;71.90
30336;DHT22;17142;47.990;7.846;2023-07-31T12:34:00;26.50;70.40
30336;DHT22;17142;47.990;7.846;2023-07-31T12:36:28;26.60;70.40
30336;DHT22;17142;47.990;7.846;2023-07-31T12:38:55;26.40;67.40
30336;DHT22;17142;47.990;7.846;2023-07-31T12:41:23;26.20;68.60
30336;DHT22;17142;47.990;7.846;2023-07-31T12:43:49;26.40;69.20
30336;DHT22;17142;47.990;7.846;2023-07-31T12:46:17;26.50;67.50
30336;DHT22;17142;47.990;7.846;2023-07-31T12:48:45;26.40;69.50
30336;DHT22;17142;47.990;7.846;2023-07-31T12:51:10;26.50;70.40
30336;DHT22;17142;47.990;7.846;2023-07-31T12:53:38;26.80;67.60
30336;DHT22;17142;47.990;7.846;2023-07-31T12:56:04;26.80;67.00
30336;DHT22;17142;47.990;7.846;2023-07-31T12:58:30;26.70;67.90
30336;DHT22;17142;47.990;7.846;2023-07-31T13:00:55;26.60;68.60
30336;DHT22;17142;47.990;7.846;2023-07-31T13:03:21;26.50;69.50
30336;DHT22;17142;47.990;7.846;2023-07-31T13:05:47;26.50;69.30
30336;DHT22;17142;47.990;7.846;2023-07-31T13:08:13;26.70;68.80
30336;DHT22;17142;47.990;7.846;2023-07-31T13:10:41;26.60;68.00
30336;DHT22;17142;47.990;7.846;2023-07-31T13:13:10;26.70;68.90
30336;DHT22;17142;47.990;7.846;2023-07-31T13:15:35;26.60;68.50
30336;DHT22;17142;47.990;7.846;2023-07-31T13:18:04;26.00;69.90
30336;DHT22;17142;47.990;7.846;2023-07-31T13:20:29;26.10;69.00
30336;DHT22;17142;47.990;7.846;2023-07-31T13:22:55;26.20;69.40
30336;DHT22;17142;47.990;7.846;2023-07-31T13:25:20;25.90;69.00
30336;DHT22;17142;47.990;7.846;2023-07-31T13:27:46;26.10;69.50
30336;DHT22;17142;47.990;7.846;2023-07-31T13:30:14;26.10;68.60
30336;DHT22;17142;47.990;7.846;2023-07-31T13:32:42;26.10;68.10
30336;DHT22;17142;47.990;7.846;2023-07-31T13:35:08;26.20;68.60
30336;DHT22;17142;47.990;7.846;2023-07-31T13:37:34;26.60;66.90
30336;DHT22;17142;47.990;7.846;2023-07-31T13:40:05;26.70;67.50
30336;DHT22;17142;47.990;7.846;2023-07-31T13:42:32;26.90;66.70
30336;DHT22;17142;47.990;7.846;2023-07-31T13:45:00;27.00;66.70
30336;DHT22;17142;47.990;7.846;2023-07-31T13:47:26;26.70;66.10
30336;DHT22;17142;47.990;7.846;2023-07-31T13:49:52;26.80;66.10
30336;DHT22;17142;47.990;7.846;2023-07-31T13:52:20;27.00;66.20
30336;DHT22;17142;47.990;7.846;2023-07-31T13:54:45;27.40;66.50
30336;DHT22;17142;47.990;7.846;2023-07-31T13:57:11;27.50;66.40
30336;DHT22;17142;47.990;7.846;2023-07-31T13:59:37;27.40;66.40
30336;DHT22;17142;47.990;7.846;2023-07-31T14:02:04;27.60;66.50
30336;DHT22;17142;47.990;7.846;2023-07-31T14:04:30;27.30;66.50
30336;DHT22;17142;47.990;7.846;2023-07-31T14:06:56;27.20;66.20
30336;DHT22;17142;47.990;7.846;2023-07-31T14:09:22;27.30;65.90
30336;DHT22;17142;47.990;7.846;2023-07-31T14:11:48;27.40;66.70
30336;DHT22;17142;47.990;7.846;2023-07-31T14:14:13;27.30;68.20
30336;DHT22;17142;47.990;7.846;2023-07-31T14:16:39;27.30;66.60
30336;DHT22;17142;47.990;7.846;2023-07-31T14:19:05;27.30;66.60
30336;DHT22;17142;47.990;7.846;2023-07-31T14:21:33;27.10;66.00
30336;DHT22;17142;47.990;7.846;2023-07-31T14:23:59;27.00;66.10
30336;DHT22;17142;47.990;7.846;2023-07-31T14:26:27;26.80;67.20
30336;DHT22;17142;47.990;7.846;2023-07-31T14:28:53;26.80;67.90
30336;DHT22;17142;47.990;7.846;2023-07-31T14:31:18;27.00;67.10
30336;DHT22;17142;47.990;7.846;2023-07-31T14:33:46;27.20;66.60
30336;DHT22;17142;47.990;7.846;2023-07-31T14:36:12;27.10;66.00
30336;DHT22;17142;47.990;7.846;2023-07-31T14:38:38;27.10;67.00
30336;DHT22;17142;47.990;7.846;2023-07-31T14:41:03;27.20;66.20
30336;DHT22;17142;47.990;7.846;2023-07-31T14:43:31;27.10;64.50
30336;DHT22;17142;47.990;7.846;2023-07-31T14:45:57;27.30;64.60
30336;DHT22;17142;47.990;7.846;2023-07-31T14:48:25;27.40;64.20
30336;DHT22;17142;47.990;7.846;2023-07-31T14:50:51;27.30;66.00
30336;DHT22;17142;47.990;7.846;2023-07-31T14:53:17;27.40;64.60
30336;DHT22;17142;47.990;7.846;2023-07-31T14:55:42;27.60;64.50
30336;DHT22;17142;47.990;7.846;2023-07-31T14:58:10;27.50;64.80
30336;DHT22;17142;47.990;7.846;2023-07-31T15:00:36;27.10;65.30
30336;DHT22;17142;47.990;7.846;2023-07-31T15:03:03;27.00;65.60
30336;DHT22;17142;47.990;7.846;2023-07-31T15:05:28;27.00;66.00
30336;DHT22;17142;47.990;7.846;2023-07-31T15:07:54;26.90;65.30
30336;DHT22;17142;47.990;7.846;2023-07-31T15:10:22;27.00;66.50
30336;DHT22;17142;47.990;7.846;2023-07-31T15:12:50;26.90;65.30
30336;DHT22;17142;47.990;7.846;2023-07-31T15:15:16;27.10;64.40
30336;DHT22;17142;47.990;7.846;2023-07-31T15:17:42;27.20;64.90
30336;DHT22;17142;47.990;7.846;2023-07-31T15:20:09;27.30;64.70
30336;DHT22;17142;47.990;7.846;2023-07-31T15:22:34;27.10;64.80
30336;DHT22;17142;47.990;7.846;2023-07-31T15:25:03;27.00;65.00
30336;DHT22;17142;47.990;7.846;2023-07-31T15:27:31;26.90;65.40
30336;DHT22;17142;47.990;7.846;2023-07-31T15:29:59;26.80;66.40
30336;DHT22;17142;47.990;7.846;2023-07-31T15:32:24;26.60;65.10
30336;DHT22;17142;47.990;7.846;2023-07-31T15:34:50;26.60;66.10
30336;DHT22;17142;47.990;7.846;2023-07-31T15:37:16;26.20;65.40
30336;DHT22;17142;47.990;7.846;2023-07-31T15:39:43;26.10;66.10
30336;DHT22;17142;47.990;7.846;2023-07-31T15:42:08;26.10;66.70
30336;DHT22;17142;47.990;7.846;2023-07-31T15:44:34;26.30;65.60
30336;DHT22;17142;47.990;7.846;2023-07-31T15:47:00;26.40;65.60
30336;DHT22;17142;47.990;7.846;2023-07-31T15:49:28;26.30;64.40
30336;DHT22;17142;47.990;7.846;2023-07-31T15:51:57;26.30;65.00
30336;DHT22;17142;47.990;7.846;2023-07-31T15:54:22;26.20;65.40
30336;DHT22;17142;47.990;7.846;2023-07-31T15:56:48;26.20;66.00
30336;DHT22;17142;47.990;7.846;2023-07-31T15:59:16;26.10;64.80
30336;DHT22;17142;47.990;7.846;2023-07-31T16:01:41;26.00;66.00
30336;DHT22;17142;47.990;7.846;2023-07-31T16:04:09;25.80;67.10
30336;DHT22;17142;47.990;7.846;2023-07-31T16:06:37;25.70;67.70
30336;DHT22;17142;47.990;7.846;2023-07-31T16:09:02;25.50;68.10
30336;DHT22;17142;47.990;7.846;2023-07-31T16:11:28;25.50;68.00
30336;DHT22;17142;47.990;7.846;2023-07-31T16:13:57;25.40;69.20
30336;DHT22;17142;47.990;7.846;2023-07-31T16:16:24;25.20;69.90
30336;DHT22;17142;47.990;7.846;2023-07-31T16:18:52;25.10;72.30
30336;DHT22;17142;47.990;7.846;2023-07-31T16:21:18;25.10;73.60
30336;DHT22;17142;47.990;7.846;2023-07-31T16:23:44;25.10;74.60
30336;DHT22;17142;47.990;7.846;2023-07-31T16:26:12;25.20;75.00
30336;DHT22;17142;47.990;7.846;2023-07-31T16:28:40;25.20;75.90
30336;DHT22;17142;47.990;7.846;2023-07-31T16:31:06;25.10;75.50
30336;DHT22;17142;47.990;7.846;2023-07-31T16:33:34;25.10;75.80
30336;DHT22;17142;47.990;7.846;2023-07-31T16:36:02;25.20;76.30
30336;DHT22;17142;47.990;7.846;2023-07-31T16:38:28;25.10;75.40
30336;DHT22;17142;47.990;7.846;2023-07-31T16:40:59;24.90;76.30
30336;DHT22;17142;47.990;7.846;2023-07-31T16:43:30;24.70;76.50
30336;DHT22;17142;47.990;7.846;2023-07-31T16:45:56;24.70;76.50
30336;DHT22;17142;47.990;7.846;2023-07-31T16:48:22;24.70;76.50
30336;DHT22;17142;47.990;7.846;2023-07-31T16:50:48;24.70;76.90
30336;DHT22;17142;47.990;7.846;2023-07-31T16:53:14;24.60;77.40
30336;DHT22;17142;47.990;7.846;2023-07-31T16:55:42;24.50;78.10
30336;DHT22;17142;47.990;7.846;2023-07-31T16:58:07;24.50;78.30
30336;DHT22;17142;47.990;7.846;2023-07-31T17:00:35;24.40;79.00
30336;DHT22;17142;47.990;7.846;2023-07-31T17:03:02;24.40;79.10
30336;DHT22;17142;47.990;7.846;2023-07-31T17:05:28;24.40;79.30
30336;DHT22;17142;47.990;7.846;2023-07-31T17:07:56;24.50;79.30
30336;DHT22;17142;47.990;7.846;2023-07-31T17:10:22;24.50;79.10
30336;DHT22;17142;47.990;7.846;2023-07-31T17:12:48;24.50;78.60
30336;DHT22;17142;47.990;7.846;2023-07-31T17:15:16;24.50;78.90
30336;DHT22;17142;47.990;7.846;2023-07-31T17:17:42;24.40;79.60
30336;DHT22;17142;47.990;7.846;2023-07-31T17:20:08;24.30;79.20
30336;DHT22;17142;47.990;7.846;2023-07-31T17:22:38;24.20;79.90
30336;DHT22;17142;47.990;7.846;2023-07-31T17:25:04;24.10;80.00
30336;DHT22;17142;47.990;7.846;2023-07-31T17:27:30;24.10;79.70
30336;DHT22;17142;47.990;7.846;2023-07-31T17:29:56;24.10;79.10
30336;DHT22;17142;47.990;7.846;2023-07-31T17:32:22;24.00;79.70
30336;DHT22;17142;47.990;7.846;2023-07-31T17:34:48;23.90;80.40
30336;DHT22;17142;47.990;7.846;2023-07-31T17:37:16;23.80;80.20
30336;DHT22;17142;47.990;7.846;2023-07-31T17:39:44;23.80;80.60
30336;DHT22;17142;47.990;7.846;2023-07-31T17:42:12;23.70;80.80
30336;DHT22;17142;47.990;7.846;2023-07-31T17:44:40;23.60;80.60
30336;DHT22;17142;47.990;7.846;2023-07-31T17:47:08;23.60;81.30
30336;DHT22;17142;47.990;7.846;2023-07-31T17:49:34;23.60;82.10
30336;DHT22;17142;47.990;7.846;2023-07-31T17:51:59;23.50;84.20
30336;DHT22;17142;47.990;7.846;2023-07-31T17:54:28;23.50;86.10
30336;DHT22;17142;47.990;7.846;2023-07-31T17:56:54;23.30;88.00
30336;DHT22;17142;47.990;7.846;2023-07-31T17:59:19;23.20;87.10
30336;DHT22;17142;47.990;7.846;2023-07-31T18:01:45;23.00;88.00
30336;DHT22;17142;47.990;7.846;2023-07-31T18:04:13;22.90;87.80
30336;DHT22;17142;47.990;7.846;2023-07-31T18:06:41;22.90;88.50
30336;DHT22;17142;47.990;7.846;2023-07-31T18:09:07;22.80;88.90
30336;DHT22;17142;47.990;7.846;2023-07-31T18:11:33;22.80;88.80
30336;DHT22;17142;47.990;7.846;2023-07-31T18:14:01;22.80;88.50
30336;DHT22;17142;47.990;7.846;2023-07-31T18:16:27;22.70;88.70
30336;DHT22;17142;47.990;7.846;2023-07-31T18:18:55;22.60;88.90
30336;DHT22;17142;47.990;7.846;2023-07-31T18:21:23;22.50;89.60
30336;DHT22;17142;47.990;7.846;2023-07-31T18:23:48;22.50;90.00
30336;DHT22;17142;47.990;7.846;2023-07-31T18:26:14;22.40;89.50
30336;DHT22;17142;47.990;7.846;2023-07-31T18:28:40;22.30;89.00
30336;DHT22;17142;47.990;7.846;2023-07-31T18:31:05;22.30;90.00
30336;DHT22;17142;47.990;7.846;2023-07-31T18:33:31;22.20;89.80
30336;DHT22;17142;47.990;7.846;2023-07-31T18:35:56;22.30;90.10
30336;DHT22;17142;47.990;7.846;2023-07-31T18:38:27;22.30;89.80
30336;DHT22;17142;47.990;7.846;2023-07-31T18:40:57;22.20;89.60
30336;DHT22;17142;47.990;7.846;2023-07-31T18:43:22;22.20;90.10
30336;DHT22;17142;47.990;7.846;2023-07-31T18:45:50;22.20;90.20
30336;DHT22;17142;47.990;7.846;2023-07-31T18:48:19;22.10;90.10
30336;DHT22;17142;47.990;7.846;2023-07-31T18:50:46;22.10;90.00
30336;DHT22;17142;47.990;7.846;2023-07-31T18:53:12;22.10;90.10
30336;DHT22;17142;47.990;7.846;2023-07-31T18:55:44;22.10;90.00
30336;DHT22;17142;47.990;7.846;2023-07-31T18:58:10;22.00;90.10
30336;DHT22;17142;47.990;7.846;2023-07-31T19:00:38;22.00;90.10
30336;DHT22;17142;47.990;7.846;2023-07-31T19:03:08;22.00;90.20
30336;DHT22;17142;47.990;7.846;2023-07-31T19:05:41;22.10;90.00
30336;DHT22;17142;47.990;7.846;2023-07-31T19:08:07;22.00;90.20
30336;DHT22;17142;47.990;7.846;2023-07-31T19:10:33;22.00;90.20
30336;DHT22;17142;47.990;7.846;2023-07-31T19:12:59;22.00;90.20
30336;DHT22;17142;47.990;7.846;2023-07-31T19:15:25;21.90;90.20
30336;DHT22;17142;47.990;7.846;2023-07-31T19:17:53;21.90;90.50
30336;DHT22;17142;47.990;7.846;2023-07-31T19:20:18;21.80;90.50
30336;DHT22;17142;47.990;7.846;2023-07-31T19:22:46;21.80;90.40
30336;DHT22;17142;47.990;7.846;2023-07-31T19:25:16;21.80;90.50
30336;DHT22;17142;47.990;7.846;2023-07-31T19:27:42;21.80;90.50
30336;DHT22;17142;47.990;7.846;2023-07-31T19:30:08;21.80;91.60
30336;DHT22;17142;47.990;7.846;2023-07-31T19:32:36;21.70;91.80
30336;DHT22;17142;47.990;7.846;2023-07-31T19:35:02;21.60;93.90
30336;DHT22;17142;47.990;7.846;2023-07-31T19:37:30;21.50;94.70
30336;DHT22;17142;47.990;7.846;2023-07-31T19:39:58;21.40;95.10
30336;DHT22;17142;47.990;7.846;2023-07-31T19:42:26;21.30;96.80
30336;DHT22;17142;47.990;7.846;2023-07-31T19:44:51;21.10;97.70
30336;DHT22;17142;47.990;7.846;2023-07-31T19:47:17;21.00;99.80
30336;DHT22;17142;47.990;7.846;2023-07-31T19:49:43;20.90;99.90
30336;DHT22;17142;47.990;7.846;2023-07-31T19:52:08;20.80;99.90
30336;DHT22;17142;47.990;7.846;2023-07-31T19:54:34;20.70;99.90
30336;DHT22;17142;47.990;7.846;2023-07-31T19:56:59;20.60;99.90
30336;DHT22;17142;47.990;7.846;2023-07-31T19:59:25;20.60;99.90
30336;DHT22;17142;47.990;7.846;2023-07-31T20:01:51;20.60;99.90
30336;DHT22;17142;47.990;7.846;2023-07-31T20:04:16;20.50;99.90
30336;DHT22;17142;47.990;7.846;2023-07-31T20:06:42;20.50;99.90
30336;DHT22;17142;47.990;7.846;2023-07-31T20:09:08;20.40;99.90
30336;DHT22;17142;47.990;7.846;2023-07-31T20:11:33;20.40;99.90
30336;DHT22;17142;47.990;7.846;2023-07-31T20:14:07;20.40;99.90
30336;DHT22;17142;47.990;7.846;2023-07-31T20:16:33;20.30;99.90
30336;DHT22;17142;47.990;7.846;2023-07-31T20:19:03;20.30;99.90
30336;DHT22;17142;47.990;7.846;2023-07-31T20:21:29;20.30;99.90